Decoded Metar for LIMC (MILANO MALPENSA in ITALY) (IATA:MXP) | Meteo·Mobile Aviation Weather
aviador You're here:

LIMC Decoded Metar

MILANO MALPENSA in ITALY
Report Time2020-01-26 15:50:00
UTC Time2020-01-26 16:12:48
Flight Rules mvfr MVFR
Wind250° at 04 kt
W.Decomp.*RWY 17: 0.8 kt HW 3.9 kt RCW
Visibility6000 m
Phenomena:N/A
Clouds:N/A
Expected CloudBase > 2,800 ft AGL from Temp-Dew spread
CeilingNone
Temp09°C (ISA -5)
Dew Point02°C (62% RH)
AAT5.9°C
QNH1019 hPa
Density Alt36 ft
Elevation692 ft
Report Wrong Elevation
Raw Report
METAR LIMC 261550Z 25004KT 210V270 6000 NSC 09/02 Q1019 NOSIG=

Extra information for LIMC:More info

Metar Taf Metar & Taf Last 4 Metars F.Rules Stats Wind Profile Meteogram Temp Stats Airport Information Weather charts Add Link Nearby VenuesMetar ALERT Operation Metar Decoded Social comments